sensor_id;sensor_type;location;lat;lon;timestamp;P1;durP1;ratioP1;P2;durP2;ratioP2
29382;SDS011;16365;51.598;7.668;2023-04-25T00:00:50;19.53;;;7.13;;
29382;SDS011;16365;51.598;7.668;2023-04-25T00:03:18;20.37;;;7.13;;
29382;SDS011;16365;51.598;7.668;2023-04-25T00:05:45;16.92;;;6.75;;
29382;SDS011;16365;51.598;7.668;2023-04-25T00:08:14;19.33;;;7.20;;
29382;SDS011;16365;51.598;7.668;2023-04-25T00:10:47;18.35;;;6.70;;
29382;SDS011;16365;51.598;7.668;2023-04-25T00:13:21;16.35;;;6.85;;
29382;SDS011;16365;51.598;7.668;2023-04-25T00:15:48;18.85;;;6.25;;
29382;SDS011;16365;51.598;7.668;2023-04-25T00:18:15;19.88;;;6.07;;
29382;SDS011;16365;51.598;7.668;2023-04-25T00:20:41;19.77;;;8.18;;
29382;SDS011;16365;51.598;7.668;2023-04-25T00:23:13;20.30;;;6.90;;
29382;SDS011;16365;51.598;7.668;2023-04-25T00:25:44;16.45;;;6.20;;
29382;SDS011;16365;51.598;7.668;2023-04-25T00:28:14;18.88;;;6.93;;
29382;SDS011;16365;51.598;7.668;2023-04-25T00:30:45;20.92;;;7.20;;
29382;SDS011;16365;51.598;7.668;2023-04-25T00:33:11;16.57;;;6.87;;
29382;SDS011;16365;51.598;7.668;2023-04-25T00:35:39;36.90;;;7.13;;
29382;SDS011;16365;51.598;7.668;2023-04-25T00:38:06;13.52;;;6.63;;
29382;SDS011;16365;51.598;7.668;2023-04-25T00:40:32;21.60;;;7.53;;
29382;SDS011;16365;51.598;7.668;2023-04-25T00:42:59;16.92;;;6.55;;
29382;SDS011;16365;51.598;7.668;2023-04-25T00:45:27;20.77;;;6.70;;
29382;SDS011;16365;51.598;7.668;2023-04-25T00:47:58;22.52;;;7.65;;
29382;SDS011;16365;51.598;7.668;2023-04-25T00:50:26;17.10;;;7.03;;
29382;SDS011;16365;51.598;7.668;2023-04-25T00:52:53;15.65;;;7.35;;
29382;SDS011;16365;51.598;7.668;2023-04-25T00:55:20;15.85;;;7.10;;
29382;SDS011;16365;51.598;7.668;2023-04-25T00:57:47;16.33;;;6.75;;
29382;SDS011;16365;51.598;7.668;2023-04-25T01:00:15;16.83;;;6.32;;
29382;SDS011;16365;51.598;7.668;2023-04-25T01:02:42;17.23;;;6.63;;
29382;SDS011;16365;51.598;7.668;2023-04-25T01:05:09;16.27;;;6.75;;
29382;SDS011;16365;51.598;7.668;2023-04-25T01:10:05;15.73;;;6.38;;
29382;SDS011;16365;51.598;7.668;2023-04-25T01:12:34;15.10;;;6.93;;
29382;SDS011;16365;51.598;7.668;2023-04-25T01:15:04;14.32;;;6.10;;
29382;SDS011;16365;51.598;7.668;2023-04-25T01:17:31;16.08;;;6.07;;
29382;SDS011;16365;51.598;7.668;2023-04-25T01:22:31;11.60;;;5.70;;
29382;SDS011;16365;51.598;7.668;2023-04-25T01:25:01;12.50;;;5.90;;
29382;SDS011;16365;51.598;7.668;2023-04-25T01:27:28;14.88;;;6.95;;
29382;SDS011;16365;51.598;7.668;2023-04-25T01:29:57;17.05;;;6.18;;
29382;SDS011;16365;51.598;7.668;2023-04-25T01:32:23;13.35;;;5.68;;
29382;SDS011;16365;51.598;7.668;2023-04-25T01:34:54;12.15;;;6.25;;
29382;SDS011;16365;51.598;7.668;2023-04-25T01:37:23;18.50;;;6.15;;
29382;SDS011;16365;51.598;7.668;2023-04-25T01:39:52;15.27;;;6.00;;
29382;SDS011;16365;51.598;7.668;2023-04-25T01:42:19;14.55;;;6.40;;
29382;SDS011;16365;51.598;7.668;2023-04-25T01:44:46;13.82;;;5.82;;
29382;SDS011;16365;51.598;7.668;2023-04-25T01:47:13;14.07;;;6.63;;
29382;SDS011;16365;51.598;7.668;2023-04-25T01:49:43;12.07;;;5.78;;
29382;SDS011;16365;51.598;7.668;2023-04-25T01:52:16;12.60;;;6.25;;
29382;SDS011;16365;51.598;7.668;2023-04-25T01:54:43;12.05;;;5.43;;
29382;SDS011;16365;51.598;7.668;2023-04-25T01:57:11;12.13;;;5.47;;
29382;SDS011;16365;51.598;7.668;2023-04-25T01:59:38;12.95;;;5.80;;
29382;SDS011;16365;51.598;7.668;2023-04-25T02:02:05;14.98;;;5.93;;
29382;SDS011;16365;51.598;7.668;2023-04-25T02:04:31;16.98;;;5.70;;
29382;SDS011;16365;51.598;7.668;2023-04-25T02:06:59;16.77;;;5.97;;
29382;SDS011;16365;51.598;7.668;2023-04-25T02:09:25;12.95;;;5.85;;
29382;SDS011;16365;51.598;7.668;2023-04-25T02:11:52;11.68;;;5.75;;
29382;SDS011;16365;51.598;7.668;2023-04-25T02:14:22;14.38;;;5.53;;
29382;SDS011;16365;51.598;7.668;2023-04-25T02:16:48;13.25;;;6.25;;
29382;SDS011;16365;51.598;7.668;2023-04-25T02:19:17;17.17;;;6.80;;
29382;SDS011;16365;51.598;7.668;2023-04-25T02:21:45;10.75;;;5.93;;
29382;SDS011;16365;51.598;7.668;2023-04-25T02:24:15;15.07;;;6.18;;
29382;SDS011;16365;51.598;7.668;2023-04-25T02:26:41;10.57;;;5.45;;
29382;SDS011;16365;51.598;7.668;2023-04-25T02:29:08;10.73;;;5.40;;
29382;SDS011;16365;51.598;7.668;2023-04-25T02:31:40;12.27;;;5.35;;
29382;SDS011;16365;51.598;7.668;2023-04-25T02:34:10;11.52;;;5.85;;
29382;SDS011;16365;51.598;7.668;2023-04-25T02:36:37;15.27;;;5.75;;
29382;SDS011;16365;51.598;7.668;2023-04-25T02:41:32;12.40;;;5.60;;
29382;SDS011;16365;51.598;7.668;2023-04-25T02:43:59;12.55;;;5.45;;
29382;SDS011;16365;51.598;7.668;2023-04-25T02:46:31;11.38;;;6.10;;
29382;SDS011;16365;51.598;7.668;2023-04-25T02:49:05;14.75;;;5.05;;
29382;SDS011;16365;51.598;7.668;2023-04-25T02:51:40;14.45;;;5.18;;
29382;SDS011;16365;51.598;7.668;2023-04-25T02:54:06;13.80;;;5.82;;
29382;SDS011;16365;51.598;7.668;2023-04-25T02:56:37;14.65;;;5.55;;
29382;SDS011;16365;51.598;7.668;2023-04-25T02:59:04;13.73;;;5.80;;
29382;SDS011;16365;51.598;7.668;2023-04-25T03:01:33;14.70;;;5.55;;
29382;SDS011;16365;51.598;7.668;2023-04-25T03:04:10;17.38;;;5.72;;
29382;SDS011;16365;51.598;7.668;2023-04-25T03:06:40;14.82;;;5.32;;
29382;SDS011;16365;51.598;7.668;2023-04-25T03:09:07;13.57;;;5.18;;
29382;SDS011;16365;51.598;7.668;2023-04-25T03:11:33;18.48;;;5.75;;
29382;SDS011;16365;51.598;7.668;2023-04-25T03:14:28;18.95;;;5.85;;
29382;SDS011;16365;51.598;7.668;2023-04-25T03:16:54;12.52;;;5.55;;
29382;SDS011;16365;51.598;7.668;2023-04-25T03:19:22;15.68;;;6.40;;
29382;SDS011;16365;51.598;7.668;2023-04-25T03:21:51;12.63;;;6.68;;
29382;SDS011;16365;51.598;7.668;2023-04-25T03:24:21;14.65;;;6.68;;
29382;SDS011;16365;51.598;7.668;2023-04-25T03:26:53;14.07;;;5.95;;
29382;SDS011;16365;51.598;7.668;2023-04-25T03:29:22;18.42;;;6.32;;
29382;SDS011;16365;51.598;7.668;2023-04-25T03:31:55;13.73;;;6.28;;
29382;SDS011;16365;51.598;7.668;2023-04-25T03:34:23;16.50;;;5.97;;
29382;SDS011;16365;51.598;7.668;2023-04-25T03:36:52;16.40;;;5.85;;
29382;SDS011;16365;51.598;7.668;2023-04-25T03:39:18;14.35;;;5.20;;
29382;SDS011;16365;51.598;7.668;2023-04-25T03:41:50;18.33;;;5.75;;
29382;SDS011;16365;51.598;7.668;2023-04-25T03:44:22;19.52;;;6.15;;
29382;SDS011;16365;51.598;7.668;2023-04-25T03:46:50;14.55;;;6.18;;
29382;SDS011;16365;51.598;7.668;2023-04-25T03:49:17;18.13;;;6.72;;
29382;SDS011;16365;51.598;7.668;2023-04-25T03:51:53;18.05;;;6.55;;
29382;SDS011;16365;51.598;7.668;2023-04-25T03:54:21;18.48;;;6.43;;
29382;SDS011;16365;51.598;7.668;2023-04-25T03:56:47;20.17;;;7.03;;
29382;SDS011;16365;51.598;7.668;2023-04-25T03:59:20;13.05;;;5.88;;
29382;SDS011;16365;51.598;7.668;2023-04-25T04:01:46;16.98;;;6.13;;
29382;SDS011;16365;51.598;7.668;2023-04-25T04:04:13;22.77;;;6.10;;
29382;SDS011;16365;51.598;7.668;2023-04-25T04:06:40;21.67;;;6.30;;
29382;SDS011;16365;51.598;7.668;2023-04-25T04:09:14;18.27;;;6.25;;
29382;SDS011;16365;51.598;7.668;2023-04-25T04:11:41;18.92;;;6.10;;
29382;SDS011;16365;51.598;7.668;2023-04-25T04:14:08;30.83;;;7.03;;
29382;SDS011;16365;51.598;7.668;2023-04-25T04:16:36;18.17;;;5.95;;
29382;SDS011;16365;51.598;7.668;2023-04-25T04:19:06;19.88;;;7.00;;
29382;SDS011;16365;51.598;7.668;2023-04-25T04:21:32;20.42;;;6.28;;
29382;SDS011;16365;51.598;7.668;2023-04-25T04:23:59;20.17;;;6.25;;
29382;SDS011;16365;51.598;7.668;2023-04-25T04:26:26;17.15;;;6.18;;
29382;SDS011;16365;51.598;7.668;2023-04-25T04:28:53;20.90;;;6.82;;
29382;SDS011;16365;51.598;7.668;2023-04-25T04:31:21;15.75;;;6.40;;
29382;SDS011;16365;51.598;7.668;2023-04-25T04:33:48;16.08;;;6.78;;
29382;SDS011;16365;51.598;7.668;2023-04-25T04:36:17;13.32;;;6.05;;
29382;SDS011;16365;51.598;7.668;2023-04-25T04:38:50;20.08;;;6.05;;
29382;SDS011;16365;51.598;7.668;2023-04-25T04:41:25;19.52;;;6.25;;
29382;SDS011;16365;51.598;7.668;2023-04-25T04:43:55;19.88;;;5.75;;
29382;SDS011;16365;51.598;7.668;2023-04-25T04:46:22;25.45;;;6.43;;
29382;SDS011;16365;51.598;7.668;2023-04-25T04:48:50;19.38;;;5.68;;
29382;SDS011;16365;51.598;7.668;2023-04-25T04:51:19;17.35;;;5.55;;
29382;SDS011;16365;51.598;7.668;2023-04-25T04:53:53;21.70;;;6.18;;
29382;SDS011;16365;51.598;7.668;2023-04-25T04:56:26;14.02;;;5.13;;
29382;SDS011;16365;51.598;7.668;2023-04-25T04:58:54;15.13;;;5.17;;
29382;SDS011;16365;51.598;7.668;2023-04-25T05:01:22;17.25;;;6.15;;
29382;SDS011;16365;51.598;7.668;2023-04-25T05:03:49;16.83;;;6.60;;
29382;SDS011;16365;51.598;7.668;2023-04-25T05:06:17;14.52;;;6.57;;
29382;SDS011;16365;51.598;7.668;2023-04-25T05:08:47;19.05;;;6.03;;
29382;SDS011;16365;51.598;7.668;2023-04-25T05:11:17;17.55;;;5.90;;
29382;SDS011;16365;51.598;7.668;2023-04-25T05:13:43;19.95;;;5.57;;
29382;SDS011;16365;51.598;7.668;2023-04-25T05:16:10;20.40;;;6.13;;
29382;SDS011;16365;51.598;7.668;2023-04-25T05:18:40;19.05;;;6.25;;
29382;SDS011;16365;51.598;7.668;2023-04-25T05:21:07;17.25;;;5.65;;
29382;SDS011;16365;51.598;7.668;2023-04-25T05:23:33;18.48;;;5.13;;
29382;SDS011;16365;51.598;7.668;2023-04-25T05:26:03;18.13;;;5.32;;
29382;SDS011;16365;51.598;7.668;2023-04-25T05:28:55;16.98;;;4.70;;
29382;SDS011;16365;51.598;7.668;2023-04-25T05:31:21;20.77;;;5.05;;
29382;SDS011;16365;51.598;7.668;2023-04-25T05:33:48;20.38;;;5.70;;
29382;SDS011;16365;51.598;7.668;2023-04-25T05:36:18;15.43;;;4.78;;
29382;SDS011;16365;51.598;7.668;2023-04-25T05:38:45;19.88;;;5.07;;
29382;SDS011;16365;51.598;7.668;2023-04-25T05:41:12;20.02;;;4.65;;
29382;SDS011;16365;51.598;7.668;2023-04-25T05:43:39;17.42;;;4.15;;
29382;SDS011;16365;51.598;7.668;2023-04-25T05:46:11;18.48;;;4.10;;
29382;SDS011;16365;51.598;7.668;2023-04-25T05:48:38;19.77;;;4.45;;
29382;SDS011;16365;51.598;7.668;2023-04-25T05:51:04;15.75;;;4.88;;
29382;SDS011;16365;51.598;7.668;2023-04-25T05:53:31;16.88;;;3.72;;
29382;SDS011;16365;51.598;7.668;2023-04-25T05:55:58;13.45;;;3.78;;
29382;SDS011;16365;51.598;7.668;2023-04-25T05:58:24;16.23;;;4.05;;
29382;SDS011;16365;51.598;7.668;2023-04-25T06:00:50;14.38;;;3.35;;
29382;SDS011;16365;51.598;7.668;2023-04-25T06:03:17;10.77;;;4.10;;
29382;SDS011;16365;51.598;7.668;2023-04-25T06:05:46;13.75;;;3.45;;
29382;SDS011;16365;51.598;7.668;2023-04-25T06:08:13;16.10;;;3.78;;
29382;SDS011;16365;51.598;7.668;2023-04-25T06:10:39;17.88;;;4.43;;
29382;SDS011;16365;51.598;7.668;2023-04-25T06:13:06;12.68;;;3.78;;
29382;SDS011;16365;51.598;7.668;2023-04-25T06:15:32;17.70;;;3.47;;
29382;SDS011;16365;51.598;7.668;2023-04-25T06:17:59;15.52;;;3.92;;
29382;SDS011;16365;51.598;7.668;2023-04-25T06:20:25;18.95;;;4.43;;
29382;SDS011;16365;51.598;7.668;2023-04-25T06:22:52;10.73;;;3.28;;
29382;SDS011;16365;51.598;7.668;2023-04-25T06:25:18;16.95;;;3.60;;
29382;SDS011;16365;51.598;7.668;2023-04-25T06:27:45;21.25;;;3.97;;
29382;SDS011;16365;51.598;7.668;2023-04-25T06:30:12;13.00;;;3.45;;
29382;SDS011;16365;51.598;7.668;2023-04-25T06:32:38;19.90;;;3.30;;
29382;SDS011;16365;51.598;7.668;2023-04-25T06:35:05;16.15;;;3.67;;
29382;SDS011;16365;51.598;7.668;2023-04-25T06:37:32;13.90;;;3.40;;
29382;SDS011;16365;51.598;7.668;2023-04-25T06:39:58;18.77;;;3.83;;
29382;SDS011;16365;51.598;7.668;2023-04-25T06:42:25;17.90;;;3.72;;
29382;SDS011;16365;51.598;7.668;2023-04-25T06:44:51;15.48;;;3.53;;
29382;SDS011;16365;51.598;7.668;2023-04-25T06:47:18;17.02;;;3.78;;
29382;SDS011;16365;51.598;7.668;2023-04-25T06:49:44;15.35;;;3.97;;
29382;SDS011;16365;51.598;7.668;2023-04-25T06:52:11;15.60;;;3.80;;
29382;SDS011;16365;51.598;7.668;2023-04-25T06:54:38;9.43;;;3.60;;
29382;SDS011;16365;51.598;7.668;2023-04-25T06:57:04;21.38;;;4.30;;
29382;SDS011;16365;51.598;7.668;2023-04-25T06:59:31;18.80;;;4.25;;
29382;SDS011;16365;51.598;7.668;2023-04-25T07:01:58;13.77;;;3.78;;
29382;SDS011;16365;51.598;7.668;2023-04-25T07:04:25;20.75;;;3.45;;
29382;SDS011;16365;51.598;7.668;2023-04-25T07:06:52;17.92;;;3.53;;
29382;SDS011;16365;51.598;7.668;2023-04-25T07:09:19;13.07;;;3.75;;
29382;SDS011;16365;51.598;7.668;2023-04-25T07:11:46;15.02;;;3.40;;
29382;SDS011;16365;51.598;7.668;2023-04-25T07:14:12;22.42;;;3.67;;
29382;SDS011;16365;51.598;7.668;2023-04-25T07:16:39;17.77;;;4.00;;
29382;SDS011;16365;51.598;7.668;2023-04-25T07:19:06;19.85;;;3.50;;
29382;SDS011;16365;51.598;7.668;2023-04-25T07:21:32;18.92;;;3.80;;
29382;SDS011;16365;51.598;7.668;2023-04-25T07:23:59;17.45;;;3.88;;
29382;SDS011;16365;51.598;7.668;2023-04-25T07:26:25;19.15;;;3.83;;
29382;SDS011;16365;51.598;7.668;2023-04-25T07:28:51;15.23;;;3.20;;
29382;SDS011;16365;51.598;7.668;2023-04-25T07:31:18;14.77;;;4.07;;
29382;SDS011;16365;51.598;7.668;2023-04-25T07:33:45;21.40;;;4.18;;
29382;SDS011;16365;51.598;7.668;2023-04-25T07:36:12;19.38;;;3.72;;
29382;SDS011;16365;51.598;7.668;2023-04-25T07:38:39;14.18;;;3.63;;
29382;SDS011;16365;51.598;7.668;2023-04-25T07:41:05;23.52;;;3.92;;
29382;SDS011;16365;51.598;7.668;2023-04-25T07:43:32;24.55;;;3.78;;
29382;SDS011;16365;51.598;7.668;2023-04-25T07:45:58;19.75;;;3.78;;
29382;SDS011;16365;51.598;7.668;2023-04-25T07:48:25;16.38;;;3.72;;
29382;SDS011;16365;51.598;7.668;2023-04-25T07:50:51;20.95;;;4.10;;
29382;SDS011;16365;51.598;7.668;2023-04-25T07:53:18;19.45;;;4.18;;
29382;SDS011;16365;51.598;7.668;2023-04-25T07:55:45;21.33;;;3.60;;
29382;SDS011;16365;51.598;7.668;2023-04-25T07:58:11;15.68;;;3.17;;
29382;SDS011;16365;51.598;7.668;2023-04-25T08:00:38;17.05;;;4.35;;
29382;SDS011;16365;51.598;7.668;2023-04-25T08:03:04;11.95;;;3.20;;
29382;SDS011;16365;51.598;7.668;2023-04-25T08:05:32;22.10;;;3.80;;
29382;SDS011;16365;51.598;7.668;2023-04-25T08:08:00;15.75;;;3.60;;
29382;SDS011;16365;51.598;7.668;2023-04-25T08:10:28;12.85;;;3.20;;
29382;SDS011;16365;51.598;7.668;2023-04-25T08:12:54;15.18;;;3.22;;
29382;SDS011;16365;51.598;7.668;2023-04-25T08:15:24;16.58;;;3.53;;
29382;SDS011;16365;51.598;7.668;2023-04-25T08:17:51;13.45;;;3.83;;
29382;SDS011;16365;51.598;7.668;2023-04-25T08:20:18;16.60;;;4.53;;
29382;SDS011;16365;51.598;7.668;2023-04-25T08:22:44;17.70;;;3.28;;
29382;SDS011;16365;51.598;7.668;2023-04-25T08:25:11;14.02;;;3.63;;
29382;SDS011;16365;51.598;7.668;2023-04-25T08:27:37;18.42;;;3.88;;
29382;SDS011;16365;51.598;7.668;2023-04-25T08:30:04;13.43;;;3.63;;
29382;SDS011;16365;51.598;7.668;2023-04-25T08:32:31;16.23;;;3.77;;
29382;SDS011;16365;51.598;7.668;2023-04-25T08:34:59;15.43;;;3.23;;
29382;SDS011;16365;51.598;7.668;2023-04-25T08:37:26;10.43;;;3.15;;
29382;SDS011;16365;51.598;7.668;2023-04-25T08:39:52;12.35;;;3.30;;
29382;SDS011;16365;51.598;7.668;2023-04-25T08:42:19;12.75;;;2.50;;
29382;SDS011;16365;51.598;7.668;2023-04-25T08:44:49;14.30;;;3.42;;
29382;SDS011;16365;51.598;7.668;2023-04-25T08:47:19;10.95;;;2.50;;
29382;SDS011;16365;51.598;7.668;2023-04-25T08:49:49;9.98;;;2.33;;
29382;SDS011;16365;51.598;7.668;2023-04-25T08:52:16;13.60;;;2.67;;
29382;SDS011;16365;51.598;7.668;2023-04-25T08:54:48;8.85;;;2.90;;
29382;SDS011;16365;51.598;7.668;2023-04-25T08:57:15;8.35;;;2.10;;
29382;SDS011;16365;51.598;7.668;2023-04-25T08:59:46;10.38;;;2.95;;
29382;SDS011;16365;51.598;7.668;2023-04-25T09:02:13;15.57;;;3.33;;
29382;SDS011;16365;51.598;7.668;2023-04-25T09:04:43;16.35;;;3.05;;
29382;SDS011;16365;51.598;7.668;2023-04-25T09:07:10;10.73;;;2.80;;
29382;SDS011;16365;51.598;7.668;2023-04-25T09:09:37;12.27;;;2.35;;
29382;SDS011;16365;51.598;7.668;2023-04-25T09:12:03;8.27;;;2.13;;
29382;SDS011;16365;51.598;7.668;2023-04-25T09:14:31;10.73;;;2.73;;
29382;SDS011;16365;51.598;7.668;2023-04-25T09:16:59;15.52;;;2.65;;
29382;SDS011;16365;51.598;7.668;2023-04-25T09:22:07;7.05;;;1.85;;
29382;SDS011;16365;51.598;7.668;2023-04-25T09:27:12;6.00;;;1.85;;
29382;SDS011;16365;51.598;7.668;2023-04-25T09:29:46;16.35;;;2.83;;
29382;SDS011;16365;51.598;7.668;2023-04-25T09:32:17;12.02;;;3.05;;
29382;SDS011;16365;51.598;7.668;2023-04-25T09:34:49;9.63;;;4.03;;
29382;SDS011;16365;51.598;7.668;2023-04-25T09:37:29;10.43;;;2.85;;
29382;SDS011;16365;51.598;7.668;2023-04-25T09:39:57;7.53;;;2.42;;
29382;SDS011;16365;51.598;7.668;2023-04-25T09:42:27;13.63;;;3.28;;
29382;SDS011;16365;51.598;7.668;2023-04-25T09:47:23;11.77;;;2.28;;
29382;SDS011;16365;51.598;7.668;2023-04-25T09:49:51;8.27;;;2.10;;
29382;SDS011;16365;51.598;7.668;2023-04-25T09:52:22;9.27;;;2.58;;
29382;SDS011;16365;51.598;7.668;2023-04-25T09:54:51;11.90;;;2.47;;
29382;SDS011;16365;51.598;7.668;2023-04-25T09:57:20;12.15;;;2.42;;
29382;SDS011;16365;51.598;7.668;2023-04-25T10:02:15;10.60;;;2.80;;
29382;SDS011;16365;51.598;7.668;2023-04-25T10:04:44;10.98;;;1.88;;
29382;SDS011;16365;51.598;7.668;2023-04-25T10:07:13;13.23;;;2.05;;
29382;SDS011;16365;51.598;7.668;2023-04-25T10:09:40;7.55;;;2.00;;
29382;SDS011;16365;51.598;7.668;2023-04-25T10:12:08;10.63;;;2.30;;
29382;SDS011;16365;51.598;7.668;2023-04-25T10:14:34;10.48;;;1.65;;
29382;SDS011;16365;51.598;7.668;2023-04-25T10:17:01;10.82;;;4.22;;
29382;SDS011;16365;51.598;7.668;2023-04-25T10:19:28;10.20;;;2.22;;
29382;SDS011;16365;51.598;7.668;2023-04-25T10:21:57;8.05;;;2.03;;
29382;SDS011;16365;51.598;7.668;2023-04-25T10:24:49;11.55;;;2.05;;
29382;SDS011;16365;51.598;7.668;2023-04-25T10:27:17;7.67;;;1.87;;
29382;SDS011;16365;51.598;7.668;2023-04-25T10:29:44;8.15;;;1.75;;
29382;SDS011;16365;51.598;7.668;2023-04-25T10:32:11;9.85;;;1.58;;
29382;SDS011;16365;51.598;7.668;2023-04-25T10:34:41;9.18;;;1.60;;
29382;SDS011;16365;51.598;7.668;2023-04-25T10:37:10;5.32;;;1.65;;
29382;SDS011;16365;51.598;7.668;2023-04-25T10:39:39;6.57;;;1.80;;
29382;SDS011;16365;51.598;7.668;2023-04-25T10:42:07;8.95;;;1.60;;
29382;SDS011;16365;51.598;7.668;2023-04-25T10:44:37;4.18;;;2.03;;
29382;SDS011;16365;51.598;7.668;2023-04-25T10:47:06;13.02;;;1.58;;
29382;SDS011;16365;51.598;7.668;2023-04-25T10:49:42;9.77;;;2.03;;
29382;SDS011;16365;51.598;7.668;2023-04-25T10:52:24;8.38;;;1.70;;
29382;SDS011;16365;51.598;7.668;2023-04-25T10:54:56;7.20;;;2.25;;
29382;SDS011;16365;51.598;7.668;2023-04-25T10:57:27;9.52;;;1.90;;
29382;SDS011;16365;51.598;7.668;2023-04-25T10:59:58;8.82;;;2.78;;
29382;SDS011;16365;51.598;7.668;2023-04-25T11:02:36;11.73;;;2.38;;
29382;SDS011;16365;51.598;7.668;2023-04-25T11:05:34;9.98;;;2.22;;
29382;SDS011;16365;51.598;7.668;2023-04-25T11:08:22;10.52;;;2.30;;
29382;SDS011;16365;51.598;7.668;2023-04-25T11:11:03;7.13;;;3.13;;
29382;SDS011;16365;51.598;7.668;2023-04-25T11:13:30;13.00;;;2.42;;
29382;SDS011;16365;51.598;7.668;2023-04-25T11:15:57;13.85;;;2.20;;
29382;SDS011;16365;51.598;7.668;2023-04-25T11:18:40;12.68;;;2.50;;
29382;SDS011;16365;51.598;7.668;2023-04-25T11:21:07;9.30;;;2.08;;
29382;SDS011;16365;51.598;7.668;2023-04-25T11:23:34;9.07;;;2.38;;
29382;SDS011;16365;51.598;7.668;2023-04-25T11:26:01;6.38;;;1.73;;
29382;SDS011;16365;51.598;7.668;2023-04-25T11:28:28;8.50;;;2.20;;
29382;SDS011;16365;51.598;7.668;2023-04-25T11:30:54;6.22;;;2.13;;
29382;SDS011;16365;51.598;7.668;2023-04-25T11:33:25;7.95;;;2.17;;
29382;SDS011;16365;51.598;7.668;2023-04-25T11:35:53;7.15;;;1.63;;
29382;SDS011;16365;51.598;7.668;2023-04-25T11:38:22;8.75;;;1.88;;
29382;SDS011;16365;51.598;7.668;2023-04-25T11:40:52;7.28;;;1.95;;
29382;SDS011;16365;51.598;7.668;2023-04-25T11:43:20;10.13;;;1.80;;
29382;SDS011;16365;51.598;7.668;2023-04-25T11:45:48;3.33;;;1.40;;
29382;SDS011;16365;51.598;7.668;2023-04-25T11:48:17;6.57;;;1.55;;
29382;SDS011;16365;51.598;7.668;2023-04-25T11:50:51;3.88;;;1.25;;
29382;SDS011;16365;51.598;7.668;2023-04-25T11:53:19;5.97;;;1.65;;
29382;SDS011;16365;51.598;7.668;2023-04-25T11:55:46;5.25;;;2.03;;
29382;SDS011;16365;51.598;7.668;2023-04-25T11:58:12;3.13;;;1.60;;
29382;SDS011;16365;51.598;7.668;2023-04-25T12:00:41;4.40;;;1.42;;
29382;SDS011;16365;51.598;7.668;2023-04-25T12:03:16;5.82;;;1.45;;
29382;SDS011;16365;51.598;7.668;2023-04-25T12:05:44;3.60;;;1.40;;
29382;SDS011;16365;51.598;7.668;2023-04-25T12:08:13;4.88;;;1.10;;
29382;SDS011;16365;51.598;7.668;2023-04-25T12:10:42;6.80;;;1.10;;
29382;SDS011;16365;51.598;7.668;2023-04-25T12:13:21;7.05;;;1.52;;
29382;SDS011;16365;51.598;7.668;2023-04-25T12:15:57;3.53;;;1.20;;
29382;SDS011;16365;51.598;7.668;2023-04-25T12:18:26;2.35;;;0.80;;
29382;SDS011;16365;51.598;7.668;2023-04-25T12:20:56;3.47;;;1.00;;
29382;SDS011;16365;51.598;7.668;2023-04-25T12:23:25;3.30;;;1.20;;
29382;SDS011;16365;51.598;7.668;2023-04-25T12:25:54;3.33;;;1.00;;
29382;SDS011;16365;51.598;7.668;2023-04-25T12:28:22;4.65;;;1.25;;
29382;SDS011;16365;51.598;7.668;2023-04-25T12:30:53;3.72;;;1.10;;
29382;SDS011;16365;51.598;7.668;2023-04-25T12:33:21;6.60;;;1.23;;
29382;SDS011;16365;51.598;7.668;2023-04-25T12:35:48;5.80;;;1.90;;
29382;SDS011;16365;51.598;7.668;2023-04-25T12:38:22;3.97;;;1.17;;
29382;SDS011;16365;51.598;7.668;2023-04-25T12:41:01;5.75;;;1.35;;
29382;SDS011;16365;51.598;7.668;2023-04-25T12:43:28;8.02;;;1.98;;
29382;SDS011;16365;51.598;7.668;2023-04-25T12:45:58;6.00;;;1.30;;
29382;SDS011;16365;51.598;7.668;2023-04-25T12:48:24;9.63;;;1.80;;
29382;SDS011;16365;51.598;7.668;2023-04-25T12:50:51;4.45;;;1.30;;
29382;SDS011;16365;51.598;7.668;2023-04-25T12:53:18;7.60;;;1.65;;
29382;SDS011;16365;51.598;7.668;2023-04-25T12:55:46;5.65;;;1.67;;
29382;SDS011;16365;51.598;7.668;2023-04-25T12:58:14;7.90;;;2.92;;
29382;SDS011;16365;51.598;7.668;2023-04-25T13:00:41;11.57;;;1.70;;
29382;SDS011;16365;51.598;7.668;2023-04-25T13:03:08;8.52;;;1.80;;
29382;SDS011;16365;51.598;7.668;2023-04-25T13:05:35;7.63;;;2.03;;
29382;SDS011;16365;51.598;7.668;2023-04-25T13:08:02;5.88;;;1.75;;
29382;SDS011;16365;51.598;7.668;2023-04-25T13:10:29;9.57;;;1.95;;
29382;SDS011;16365;51.598;7.668;2023-04-25T13:12:55;6.85;;;1.50;;
29382;SDS011;16365;51.598;7.668;2023-04-25T13:15:22;5.97;;;1.83;;
29382;SDS011;16365;51.598;7.668;2023-04-25T13:17:49;5.63;;;1.45;;
29382;SDS011;16365;51.598;7.668;2023-04-25T13:20:15;9.23;;;1.75;;
29382;SDS011;16365;51.598;7.668;2023-04-25T13:22:43;6.45;;;1.90;;
29382;SDS011;16365;51.598;7.668;2023-04-25T13:25:11;3.47;;;1.10;;
29382;SDS011;16365;51.598;7.668;2023-04-25T13:27:39;3.80;;;1.20;;
29382;SDS011;16365;51.598;7.668;2023-04-25T13:30:06;5.20;;;1.67;;
29382;SDS011;16365;51.598;7.668;2023-04-25T13:32:35;6.32;;;1.63;;
29382;SDS011;16365;51.598;7.668;2023-04-25T13:35:03;5.22;;;1.35;;
29382;SDS011;16365;51.598;7.668;2023-04-25T13:37:36;6.03;;;1.40;;
29382;SDS011;16365;51.598;7.668;2023-04-25T13:40:05;3.03;;;1.40;;
29382;SDS011;16365;51.598;7.668;2023-04-25T13:42:37;4.68;;;1.67;;
29382;SDS011;16365;51.598;7.668;2023-04-25T13:45:04;4.55;;;1.60;;
29382;SDS011;16365;51.598;7.668;2023-04-25T13:47:32;5.03;;;1.77;;
29382;SDS011;16365;51.598;7.668;2023-04-25T13:49:59;3.30;;;1.42;;
29382;SDS011;16365;51.598;7.668;2023-04-25T13:52:28;3.33;;;1.42;;
29382;SDS011;16365;51.598;7.668;2023-04-25T13:54:55;6.47;;;1.75;;
29382;SDS011;16365;51.598;7.668;2023-04-25T13:57:23;3.53;;;1.33;;
29382;SDS011;16365;51.598;7.668;2023-04-25T13:59:50;6.20;;;1.40;;
29382;SDS011;16365;51.598;7.668;2023-04-25T14:02:19;5.57;;;1.40;;
29382;SDS011;16365;51.598;7.668;2023-04-25T14:04:46;2.72;;;1.33;;
29382;SDS011;16365;51.598;7.668;2023-04-25T14:07:13;4.85;;;1.05;;
29382;SDS011;16365;51.598;7.668;2023-04-25T14:09:44;4.13;;;1.58;;
29382;SDS011;16365;51.598;7.668;2023-04-25T14:12:11;5.38;;;1.30;;
29382;SDS011;16365;51.598;7.668;2023-04-25T14:14:37;5.07;;;1.13;;
29382;SDS011;16365;51.598;7.668;2023-04-25T14:17:04;2.20;;;1.00;;
29382;SDS011;16365;51.598;7.668;2023-04-25T14:19:31;2.90;;;0.93;;
29382;SDS011;16365;51.598;7.668;2023-04-25T14:21:57;2.10;;;0.93;;
29382;SDS011;16365;51.598;7.668;2023-04-25T14:24:24;3.40;;;1.00;;
29382;SDS011;16365;51.598;7.668;2023-04-25T14:26:51;5.43;;;1.70;;
29382;SDS011;16365;51.598;7.668;2023-04-25T14:29:19;3.10;;;1.02;;
29382;SDS011;16365;51.598;7.668;2023-04-25T14:31:45;4.53;;;1.30;;
29382;SDS011;16365;51.598;7.668;2023-04-25T14:34:13;5.82;;;1.38;;
29382;SDS011;16365;51.598;7.668;2023-04-25T14:36:40;5.47;;;1.38;;
29382;SDS011;16365;51.598;7.668;2023-04-25T14:39:06;3.53;;;1.40;;
29382;SDS011;16365;51.598;7.668;2023-04-25T14:41:33;3.92;;;1.20;;
29382;SDS011;16365;51.598;7.668;2023-04-25T14:43:59;5.80;;;1.08;;
29382;SDS011;16365;51.598;7.668;2023-04-25T14:46:25;5.15;;;1.60;;
29382;SDS011;16365;51.598;7.668;2023-04-25T14:48:52;5.82;;;1.40;;
29382;SDS011;16365;51.598;7.668;2023-04-25T14:51:19;7.15;;;1.30;;
29382;SDS011;16365;51.598;7.668;2023-04-25T14:53:46;4.35;;;1.30;;
29382;SDS011;16365;51.598;7.668;2023-04-25T14:56:12;3.75;;;1.13;;
29382;SDS011;16365;51.598;7.668;2023-04-25T14:58:40;5.80;;;1.67;;
29382;SDS011;16365;51.598;7.668;2023-04-25T15:01:07;3.65;;;1.30;;
29382;SDS011;16365;51.598;7.668;2023-04-25T15:03:34;4.63;;;1.63;;